Time;durP1;ratioP1;P1;durP2;ratioP2;P2;SDS_P1;SDS_P2;PMS_P1;PMS_P2;Temp;Humidity;BMP_temperature;BMP_pressure;BME280_temperature;BME280_humidity;BME280_pressure;Samples;Min_cycle;Max_cycle;Signal;HPM_P1;HPM_P2
2023/10/06 00:01:43;;;;;;;18.23;11.88;;;;;;;13.93;100.00;93333.94;5011935;28;20048;-78
2023/10/06 00:04:15;;;;;;;16.48;12.40;;;;;;;13.94;100.00;93332.88;5013167;28;20062;-79
2023/10/06 00:06:41;;;;;;;16.08;12.50;;;;;;;13.94;100.00;93326.84;5013206;28;20155;-78
2023/10/06 00:09:09;;;;;;;15.57;12.00;;;;;;;13.95;100.00;93334.44;5013323;28;20044;-78
2023/10/06 00:11:37;;;;;;;16.88;12.25;;;;;;;13.93;100.00;93322.63;5012142;28;20089;-78
2023/10/06 00:14:07;;;;;;;17.75;12.68;;;;;;;13.92;100.00;93324.50;5011000;28;20087;-78
2023/10/06 00:16:40;;;;;;;18.80;12.98;;;;;;;13.88;100.00;93323.50;5013310;28;20080;-79
2023/10/06 00:19:33;;;;;;;17.25;12.77;;;;;;;13.84;100.00;93326.97;5027890;28;20053;-78
2023/10/06 00:22:16;;;;;;;17.95;12.45;;;;;;;13.80;100.00;93324.13;5011693;28;20045;-79
2023/10/06 00:24:47;;;;;;;19.13;12.43;;;;;;;13.78;100.00;93330.75;5013848;28;20029;-78
2023/10/06 00:27:14;;;;;;;20.02;11.57;;;;;;;13.77;100.00;93322.06;5014206;28;20073;-78
2023/10/06 00:29:49;;;;;;;16.30;12.02;;;;;;;13.78;100.00;93318.41;5008105;28;20030;-78
2023/10/06 00:32:26;;;;;;;19.75;11.70;;;;;;;13.80;100.00;93324.13;5013685;28;20562;-78
2023/10/06 00:35:11;;;;;;;15.85;11.23;;;;;;;13.76;100.00;93312.63;5012435;28;20042;-78
2023/10/06 00:37:42;;;;;;;16.45;11.40;;;;;;;13.75;100.00;93314.47;5012907;28;20038;-79
2023/10/06 00:40:33;;;;;;;15.30;10.48;;;;;;;13.75;100.00;93316.31;5012487;28;20033;-78
2023/10/06 00:42:59;;;;;;;15.00;10.68;;;;;;;13.77;100.00;93322.06;5012250;28;20108;-78
2023/10/06 00:45:25;;;;;;;17.77;10.82;;;;;;;13.75;100.00;93317.09;5010604;28;20577;-78
2023/10/06 00:47:55;;;;;;;13.27;10.43;;;;;;;13.71;100.00;93323.22;5027280;28;20034;-78
2023/10/06 00:50:23;;;;;;;14.50;10.23;;;;;;;13.68;100.00;93326.41;5011173;28;20046;-78
2023/10/06 00:52:50;;;;;;;16.20;11.27;;;;;;;13.65;100.00;93324.38;5011004;28;20026;-79
2023/10/06 00:55:17;;;;;;;18.02;10.65;;;;;;;13.65;100.00;93327.00;5026900;28;20030;-77
2023/10/06 00:57:52;;;;;;;14.57;10.43;;;;;;;13.65;100.00;93329.63;5012979;28;20033;-78
2023/10/06 01:00:22;;;;;;;15.68;11.18;;;;;;;13.61;100.00;93324.13;5011936;28;20045;-79
2023/10/06 01:02:49;;;;;;;14.73;11.00;;;;;;;13.60;100.00;93324.41;5008903;28;20034;-77
2023/10/06 01:05:16;;;;;;;15.13;11.32;;;;;;;13.57;100.00;93322.38;5007978;28;20109;-78
2023/10/06 01:07:45;;;;;;;18.63;11.43;;;;;;;13.58;100.00;93329.19;5007821;28;20038;-78
2023/10/06 01:10:17;;;;;;;14.40;10.23;;;;;;;13.58;100.00;93329.97;5027455;28;20041;-79
2023/10/06 01:12:51;;;;;;;14.50;11.07;;;;;;;13.57;100.00;93328.41;5008789;28;20048;-78
2023/10/06 01:15:19;;;;;;;14.30;10.25;;;;;;;13.52;100.00;93316.09;5015159;28;20042;-78
2023/10/06 01:17:46;;;;;;;14.48;10.13;;;;;;;13.52;100.00;93316.09;5010768;28;20037;-78
2023/10/06 01:20:18;;;;;;;15.27;9.68;;;;;;;13.51;100.00;93326.94;5009844;28;20026;-79
2023/10/06 01:22:44;;;;;;;;;;;;;;;13.50;100.00;93333.22;5028336;28;20037;-78
2023/10/06 01:25:20;;;;;;;15.45;10.13;;;;;;;13.48;100.00;93328.25;5011611;28;19924;-79
2023/10/06 01:27:50;;;;;;;16.92;10.50;;;;;;;13.44;100.00;93329.09;5008631;28;20033;-78
2023/10/06 01:32:45;;;;;;;18.92;10.45;;;;;;;13.45;100.00;93326.19;5028479;28;20046;-78
2023/10/06 01:35:20;;;;;;;14.70;9.60;;;;;;;13.42;100.00;93325.97;5012464;28;20042;-77
2023/10/06 01:38:14;;;;;;;13.77;9.20;;;;;;;13.36;100.00;93325.25;5013011;28;20034;-79
2023/10/06 01:40:43;;;;;;;16.02;8.75;;;;;;;13.36;100.00;93327.13;5026768;28;20049;-79
2023/10/06 01:43:10;;;;;;;12.80;9.57;;;;;;;13.30;100.00;93329.00;5011612;28;20038;-78
2023/10/06 01:45:43;;;;;;;19.90;10.07;;;;;;;13.29;100.00;93330.09;5012432;28;20029;-78
2023/10/06 01:50:39;;;;;;;15.10;9.43;;;;;;;13.18;100.00;93325.97;5025051;28;20038;-79
2023/10/06 01:53:11;;;;;;;13.38;9.63;;;;;;;13.12;100.00;93327.88;5011722;28;20039;-79
2023/10/06 01:55:39;;;;;;;13.33;8.87;;;;;;;13.11;100.00;93332.34;5011702;28;20426;-79
2023/10/06 01:58:07;;;;;;;14.63;9.98;;;;;;;13.11;100.00;93327.09;5010003;28;20285;-78
2023/10/06 02:00:35;;;;;;;18.52;9.55;;;;;;;13.10;100.00;93324.75;5011151;28;20042;-78
2023/10/06 02:03:00;;;;;;;13.88;10.10;;;;;;;13.09;100.00;93323.19;5012918;28;20064;-78
2023/10/06 02:05:26;;;;;;;14.55;9.98;;;;;;;13.10;100.00;93330.00;5015816;28;20117;-78
2023/10/06 02:08:00;;;;;;;14.35;9.70;;;;;;;13.10;100.00;93328.19;5011593;28;20060;-78
2023/10/06 02:10:32;;;;;;;15.73;10.77;;;;;;;13.08;100.00;93321.59;5016383;28;20118;-77
2023/10/06 02:12:58;;;;;;;15.60;11.30;;;;;;;13.07;100.00;93325.31;5028607;28;20038;-79
2023/10/06 02:15:27;;;;;;;16.42;11.20;;;;;;;13.05;100.00;93322.97;5015178;28;20111;-78
2023/10/06 02:17:53;;;;;;;15.57;11.65;;;;;;;13.04;100.00;93320.63;5014806;28;20501;-79
2023/10/06 02:20:41;;;;;;;17.52;11.65;;;;;;;13.05;100.00;93316.94;5014719;28;20033;-79
2023/10/06 02:23:04;;;;;;;15.55;12.18;;;;;;;13.04;100.00;93316.16;5011351;28;20161;-79
2023/10/06 02:25:31;;;;;;;19.80;12.95;;;;;;;13.04;100.00;93318.00;5016695;28;20025;-78
2023/10/06 02:27:59;;;;;;;19.52;12.65;;;;;;;13.03;100.00;93316.41;5014860;28;20095;-77
2023/10/06 02:30:33;;;;;;;19.25;13.38;;;;;;;13.00;100.00;93309.88;5012515;28;20057;-78
2023/10/06 02:33:00;;;;;;;20.23;14.43;;;;;;;13.00;100.00;93315.13;5012844;28;20038;-78
2023/10/06 02:35:25;;;;;;;19.48;13.40;;;;;;;12.99;100.00;93316.22;5010766;28;20057;-78
2023/10/06 02:37:51;;;;;;;18.73;13.38;;;;;;;12.98;100.00;93314.63;5016299;28;20072;-79
2023/10/06 02:40:16;;;;;;;20.67;13.27;;;;;;;12.97;100.00;93320.97;5014798;28;20508;-78
2023/10/06 02:42:51;;;;;;;22.40;14.75;;;;;;;12.98;100.00;93317.25;4996986;28;20409;-78
2023/10/06 02:45:20;;;;;;;21.35;15.10;;;;;;;12.99;100.00;93318.84;5011894;28;20437;-78
2023/10/06 02:47:51;;;;;;;21.02;15.00;;;;;;;12.97;100.00;93320.97;5014737;28;20049;-78
2023/10/06 02:50:20;;;;;;;23.02;15.50;;;;;;;12.96;100.00;93321.25;5014384;28;20038;-79
2023/10/06 02:52:47;;;;;;;22.17;14.68;;;;;;;12.95;100.00;93320.47;5030866;28;20041;-78
2023/10/06 02:55:20;;;;;;;22.15;16.33;;;;;;;12.96;100.00;93323.88;5029322;28;20501;-78
2023/10/06 02:57:52;;;;;;;21.73;15.60;;;;;;;12.95;100.00;93317.84;5011119;28;20046;-78
2023/10/06 03:02:55;;;;;;;21.40;14.13;;;;;;;12.97;100.00;93320.97;5023678;28;20149;-77
2023/10/06 03:05:31;;;;;;;20.35;14.70;;;;;;;12.98;100.00;93333.03;5030292;28;20037;-79
2023/10/06 03:07:58;;;;;;;19.65;12.73;;;;;;;12.96;100.00;93323.88;5014499;28;20033;-79
2023/10/06 03:10:30;;;;;;;17.67;9.75;;;;;;;12.89;100.00;93321.56;5014075;28;20037;-77
2023/10/06 03:12:57;;;;;;;12.05;8.02;;;;;;;12.78;100.00;93322.75;5024440;28;20062;-77
2023/10/06 03:15:35;;;;;;;11.50;6.97;;;;;;;12.74;100.00;93321.72;4997784;28;20037;-79
2023/10/06 03:18:03;;;;;;;11.43;6.78;;;;;;;12.63;100.00;93319.22;5014556;28;20033;-78
2023/10/06 03:20:40;;;;;;;9.75;6.75;;;;;;;12.60;100.00;93327.63;5030286;28;20079;-79
2023/10/06 03:23:16;;;;;;;10.05;7.13;;;;;;;12.56;100.00;93331.09;5015052;28;20532;-79
2023/10/06 03:25:43;;;;;;;12.63;8.75;;;;;;;12.57;100.00;93328.19;5007771;28;20030;-78
2023/10/06 03:28:11;;;;;;;13.93;9.18;;;;;;;12.59;100.00;93330.56;4998116;28;20030;-78
2023/10/06 03:30:36;;;;;;;14.18;8.82;;;;;;;12.61;100.00;93331.84;5013712;28;20119;-78
2023/10/06 03:33:03;;;;;;;9.60;6.95;;;;;;;12.63;100.00;93337.59;5008864;28;20038;-78
2023/10/06 03:35:45;;;;;;;10.20;6.22;;;;;;;12.59;100.00;93333.97;5013164;28;20409;-77
2023/10/06 03:46:03;;;;;;;10.43;6.00;;;;;;;12.47;100.00;93338.78;5030117;28;20039;-78
2023/10/06 03:48:29;;;;;;;10.77;6.05;;;;;;;12.45;100.00;93335.66;5013279;28;20033;-78
2023/10/06 03:50:56;;;;;;;11.55;6.22;;;;;;;12.42;100.00;93336.22;5020521;28;20501;-78
2023/10/06 03:53:24;;;;;;;9.43;6.50;;;;;;;12.41;100.00;93345.94;5012974;28;20572;-78
2023/10/06 03:55:50;;;;;;;10.93;6.15;;;;;;;12.38;100.00;93343.84;5014446;28;20053;-78
2023/10/06 03:58:18;;;;;;;9.15;5.95;;;;;;;12.37;100.00;93339.66;5028963;28;20034;-78
2023/10/06 04:00:47;;;;;;;9.27;5.60;;;;;;;12.36;100.00;93340.75;5013782;28;20037;-79
2023/10/06 04:03:17;;;;;;;9.13;6.25;;;;;;;12.34;100.00;93349.91;5012537;28;20057;-77
2023/10/06 04:05:50;;;;;;;10.00;6.22;;;;;;;12.32;100.00;93346.81;5014272;28;20030;-78
2023/10/06 04:08:23;;;;;;;9.23;6.55;;;;;;;12.32;100.00;93346.81;5008783;28;20042;-78
2023/10/06 04:10:53;;;;;;;10.40;6.28;;;;;;;12.29;100.00;93354.19;5009898;28;20038;-77
2023/10/06 04:13:20;;;;;;;10.35;6.57;;;;;;;12.31;100.00;93351.25;5017280;28;20041;-77
2023/10/06 04:15:49;;;;;;;8.77;5.40;;;;;;;12.28;100.00;93347.34;5013060;28;20062;-78
2023/10/06 04:18:17;;;;;;;9.55;5.60;;;;;;;12.27;100.00;93345.00;5025571;28;20393;-78
2023/10/06 04:20:45;;;;;;;10.50;6.40;;;;;;;12.27;100.00;93345.78;5007360;28;20032;-78
2023/10/06 04:23:12;;;;;;;12.20;6.00;;;;;;;12.26;100.00;93338.97;5011503;28;20051;-79
2023/10/06 04:25:46;;;;;;;11.48;5.38;;;;;;;12.28;100.00;93347.34;5012451;28;20057;-78
2023/10/06 04:28:16;;;;;;;8.30;5.53;;;;;;;12.28;100.00;93342.09;5013305;28;20120;-78
2023/10/06 04:30:43;;;;;;;8.18;5.55;;;;;;;12.31;100.00;93342.59;5005567;28;20044;-78
2023/10/06 04:33:10;;;;;;;9.10;5.40;;;;;;;12.30;100.00;93341.84;5010660;28;20037;-77
2023/10/06 04:35:40;;;;;;;8.90;5.25;;;;;;;12.27;100.00;93351.03;5010044;28;20057;-78
2023/10/06 04:38:09;;;;;;;7.95;5.43;;;;;;;12.22;100.00;93348.44;5003677;28;20437;-78
2023/10/06 04:40:35;;;;;;;10.80;5.57;;;;;;;12.18;100.00;93352.69;5007300;28;20450;-78
2023/10/06 04:43:01;;;;;;;8.13;5.43;;;;;;;12.16;100.00;93349.56;5025166;28;20037;-77
2023/10/06 04:45:33;;;;;;;10.55;5.57;;;;;;;12.15;100.00;93347.19;5008779;28;20477;-78
2023/10/06 04:48:00;;;;;;;8.27;5.93;;;;;;;12.11;100.00;93357.44;5008805;28;20140;-79
2023/10/06 04:50:29;;;;;;;9.20;5.47;;;;;;;12.09;100.00;93351.69;5009703;28;20042;-79
2023/10/06 04:52:56;;;;;;;8.32;6.00;;;;;;;12.08;100.00;93355.38;5002195;28;20097;-78
2023/10/06 04:55:22;;;;;;;11.40;6.35;;;;;;;12.07;100.00;93357.22;5010355;28;20041;-79
2023/10/06 04:57:48;;;;;;;8.10;6.07;;;;;;;12.06;100.00;93358.28;5001811;28;20105;-78
2023/10/06 05:00:27;;;;;;;8.63;6.35;;;;;;;12.06;100.00;93362.75;5009509;28;21019;-80
2023/10/06 05:02:53;;;;;;;9.45;6.93;;;;;;;12.04;100.00;93357.75;5011764;28;20050;-80
2023/10/06 05:05:22;;;;;;;10.13;7.22;;;;;;;12.08;100.00;93366.66;5004512;28;20088;-78
2023/10/06 05:07:51;;;;;;;11.30;7.35;;;;;;;12.07;100.00;93359.06;5012739;28;20045;-83
2023/10/06 05:10:21;;;;;;;11.32;7.13;;;;;;;12.11;100.00;93367.94;5016112;28;20026;-82
2023/10/06 05:12:50;;;;;;;13.60;7.60;;;;;;;12.14;100.00;93367.41;5017700;28;20068;-83
2023/10/06 05:15:26;;;;;;;12.98;7.45;;;;;;;12.14;100.00;93372.66;5014220;28;20038;-82
2023/10/06 05:17:58;;;;;;;9.73;7.13;;;;;;;12.19;100.00;93371.84;5010911;28;20045;-81
2023/10/06 05:20:29;;;;;;;11.52;7.40;;;;;;;12.18;100.00;93363.19;5012694;28;20042;-82
2023/10/06 05:23:14;;;;;;;10.98;7.65;;;;;;;12.17;100.00;93360.84;5000225;28;20040;-81
2023/10/06 05:25:41;;;;;;;11.43;7.68;;;;;;;12.19;100.00;93367.38;5015389;28;20065;-81
2023/10/06 05:28:10;;;;;;;12.73;7.65;;;;;;;12.18;100.00;93368.44;5014398;28;20069;-82
2023/10/06 05:30:37;;;;;;;12.50;8.30;;;;;;;12.18;100.00;93368.44;5015410;28;20064;-82
2023/10/06 05:33:04;;;;;;;14.13;9.00;;;;;;;12.18;100.00;93365.81;5013963;28;20030;-82
2023/10/06 05:35:36;;;;;;;15.73;8.73;;;;;;;12.23;100.00;93365.78;5014936;28;20050;-82
2023/10/06 05:38:37;;;;;;;13.85;9.30;;;;;;;12.26;100.00;93369.69;5018463;28;20060;-81
2023/10/06 05:40:59;;;;;;;12.18;9.02;;;;;;;12.30;100.00;93370.72;5017789;28;20046;-82
2023/10/06 05:43:28;;;;;;;11.45;8.63;;;;;;;12.36;100.00;93374.06;5020332;28;20042;-82
2023/10/06 05:45:56;;;;;;;13.48;9.38;;;;;;;12.45;100.00;93377.66;5003424;28;20029;-81
2023/10/06 05:48:25;;;;;;;15.98;10.80;;;;;;;12.50;100.00;93383.66;5020600;28;20494;-82
2023/10/06 05:50:52;;;;;;;15.82;10.15;;;;;;;12.56;100.00;93381.78;5020323;28;20034;-81
2023/10/06 05:53:22;;;;;;;16.83;10.68;;;;;;;12.65;100.00;93393.28;5018388;28;20117;-81
2023/10/06 05:55:49;;;;;;;16.23;10.50;;;;;;;12.77;100.00;93389.50;5011573;28;20180;-80
2023/10/06 05:58:19;;;;;;;15.63;10.88;;;;;;;12.90;100.00;93397.50;5012615;28;20034;-80
2023/10/06 06:00:51;;;;;;;15.35;11.32;;;;;;;13.10;100.00;93393.91;5009407;28;20136;-80
2023/10/06 06:03:20;;;;;;;17.90;12.10;;;;;;;13.36;100.00;93406.78;5016151;28;20045;-80
2023/10/06 06:05:57;;;;;;;17.45;12.73;;;;;;;13.54;100.00;93402.63;5012015;28;20553;-80
2023/10/06 06:08:23;;;;;;;19.25;13.00;;;;;;;13.67;100.00;93409.84;5012742;28;20038;-81
2023/10/06 06:10:49;;;;;;;17.60;12.05;;;;;;;13.87;100.00;93408.78;5012357;28;20037;-81
2023/10/06 06:13:16;;;;;;;13.75;10.45;;;;;;;14.07;100.00;93415.63;5016059;28;20037;-81
2023/10/06 06:15:42;;;;;;;13.93;10.27;;;;;;;14.07;100.00;93417.47;5009001;28;20040;-80
2023/10/06 06:18:08;;;;;;;15.52;11.52;;;;;;;14.07;100.00;93420.09;5011109;28;20034;-80
2023/10/06 06:20:43;;;;;;;13.75;9.15;;;;;;;14.11;100.00;93431.63;5016535;28;20072;-81
2023/10/06 06:23:12;;;;;;;12.30;8.80;;;;;;;14.11;100.00;93429.00;5011401;28;20042;-81
2023/10/06 06:25:38;;;;;;;12.90;9.20;;;;;;;14.27;100.00;93425.06;5012183;28;20142;-82
2023/10/06 06:28:05;;;;;;;16.17;9.55;;;;;;;14.79;100.00;93430.38;5014558;28;20125;-82
2023/10/06 06:30:34;;;;;;;10.13;8.30;;;;;;;15.21;100.00;93431.25;5016889;28;20041;-81
2023/10/06 06:33:01;;;;;;;12.48;8.50;;;;;;;15.38;100.00;93431.47;5017239;28;20073;-81
2023/10/06 06:35:28;;;;;;;12.05;7.80;;;;;;;15.49;100.00;93437.34;5016450;28;20517;-82
2023/10/06 06:38:04;;;;;;;9.30;6.95;;;;;;;15.54;100.00;93445.16;5016634;28;20042;-82
2023/10/06 06:40:37;;;;;;;13.57;7.80;;;;;;;15.59;100.00;93437.13;5013255;28;20061;-82
2023/10/06 06:43:05;;;;;;;10.63;7.72;;;;;;;15.67;100.00;93442.78;5011420;28;20041;-82
2023/10/06 06:45:36;;;;;;;12.07;7.65;;;;;;;15.68;100.00;93447.00;5017152;28;20030;-82
2023/10/06 06:48:02;;;;;;;12.10;7.53;;;;;;;15.64;100.00;93446.81;5031217;28;20323;-80
2023/10/06 06:50:28;;;;;;;8.60;6.28;;;;;;;15.76;100.00;93451.63;5015676;28;20485;-81
2023/10/06 06:52:56;;;;;;;12.15;7.28;;;;;;;15.80;100.00;93456.00;5016406;28;20121;-81
2023/10/06 06:55:21;;;;;;;10.32;6.85;;;;;;;15.83;100.00;93452.03;5016348;28;20034;-81
2023/10/06 06:57:50;;;;;;;10.40;6.75;;;;;;;15.92;100.00;93450.25;5009656;28;20069;-81
2023/10/06 07:00:24;;;;;;;15.35;7.18;;;;;;;16.03;100.00;93454.25;5016470;28;20060;-81
2023/10/06 07:02:51;;;;;;;10.35;7.70;;;;;;;16.09;100.00;93454.91;5012868;28;20045;-82
2023/10/06 07:05:19;;;;;;;10.43;6.40;;;;;;;16.07;100.00;93461.56;5019245;28;20034;-81
2023/10/06 07:07:45;;;;;;;9.45;6.30;;;;;;;15.96;100.00;93461.78;5016134;28;20539;-81
2023/10/06 07:10:19;;;;;;;10.88;6.20;;;;;;;15.93;100.00;93462.38;5013978;28;20041;-81
2023/10/06 07:12:46;;;;;;;8.63;5.80;;;;;;;15.92;100.00;93463.44;5028731;28;20046;-81
2023/10/06 07:15:15;;;;;;;9.93;6.15;;;;;;;15.85;100.00;93473.63;5015976;28;20108;-82
2023/10/06 07:17:48;;;;;;;10.55;6.30;;;;;;;15.73;100.00;93482.03;5016293;28;20034;-82
2023/10/06 07:20:18;;;;;;;7.95;6.00;;;;;;;15.89;100.00;93484.38;5015839;28;20048;-82
2023/10/06 07:22:49;;;;;;;8.45;5.90;;;;;;;16.07;100.00;93478.19;5004451;28;20798;-87
2023/10/06 07:25:15;;;;;;;9.68;6.03;;;;;;;16.10;100.00;93484.72;5029459;28;20038;-85
2023/10/06 07:27:53;;;;;;;8.50;6.38;;;;;;;16.15;100.00;93484.66;5018379;28;20048;-82
2023/10/06 07:30:22;;;;;;;9.30;6.57;;;;;;;16.28;100.00;93489.13;5011968;28;20033;-84
2023/10/06 07:32:51;;;;;;;10.70;7.28;;;;;;;16.41;100.00;93488.31;5013007;28;20474;-86
2023/10/06 07:35:30;;;;;;;10.88;6.97;;;;;;;16.46;100.00;93500.63;5024910;28;20121;-86
2023/10/06 07:37:57;;;;;;;8.20;5.97;;;;;;;16.37;100.00;93497.09;5008370;28;20045;-87
2023/10/06 07:40:23;;;;;;;12.00;6.40;;;;;;;16.35;100.00;93500.06;5026615;28;20034;-85
2023/10/06 07:42:50;;;;;;;9.75;6.90;;;;;;;16.36;100.00;93506.91;5014748;28;20034;-86
2023/10/06 07:45:17;;;;;;;8.43;5.93;;;;;;;16.36;100.00;93512.19;5029519;28;20026;-86
2023/10/06 07:47:44;;;;;;;9.23;6.50;;;;;;;16.24;100.00;93506.66;5011419;28;20141;-87
2023/10/06 07:50:14;;;;;;;9.35;6.75;;;;;;;16.24;100.00;93501.38;5013935;28;20049;-88
2023/10/06 07:52:41;;;;;;;8.15;6.03;;;;;;;16.34;100.00;93510.94;4997742;28;20030;-87
2023/10/06 07:55:09;;;;;;;9.10;6.03;;;;;;;16.49;100.00;93515.13;5010679;28;20044;-87
2023/10/06 07:57:45;;;;;;;9.07;6.25;;;;;;;16.71;100.00;93517.03;5014021;28;20045;-85
2023/10/06 08:00:18;;;;;;;9.45;6.75;;;;;;;16.85;100.00;93513.25;5029663;28;20144;-86
2023/10/06 08:02:45;;;;;;;12.10;6.60;;;;;;;16.98;100.00;93506.38;5006860;28;20400;-86
2023/10/06 08:05:19;;;;;;;10.25;6.28;;;;;;;17.13;100.00;93513.13;5013352;28;20025;-86
2023/10/06 08:07:44;;;;;;;15.38;6.57;;;;;;;17.16;100.00;93507.25;5003509;28;20041;-87
2023/10/06 08:10:15;;;;;;;9.75;6.47;;;;;;;17.68;100.00;93507.53;4995161;28;20033;-86
2023/10/06 08:12:42;;;;;;;8.95;6.20;;;;;;;18.21;100.00;93518.31;5028830;28;20057;-86
2023/10/06 08:15:09;;;;;;;9.52;6.43;;;;;;;18.41;100.00;93509.78;5012152;28;20088;-87
2023/10/06 08:17:37;;;;;;;12.30;7.00;;;;;;;18.78;100.00;93507.69;5011446;28;20049;-86
2023/10/06 08:20:07;;;;;;;9.90;6.50;;;;;;;18.92;100.00;93510.94;5021337;28;20397;-87
2023/10/06 08:22:35;;;;;;;9.70;6.40;;;;;;;18.89;100.00;93516.88;5014784;28;20671;-87
2023/10/06 08:25:05;;;;;;;11.25;5.95;;;;;;;19.20;100.00;93517.78;4994814;28;20034;-87
2023/10/06 08:27:37;;;;;;;12.75;6.93;;;;;;;19.25;100.00;93517.63;5011527;28;20093;-87
2023/10/06 08:30:09;;;;;;;8.63;6.10;;;;;;;19.18;100.00;93519.97;5013630;28;20038;-87
2023/10/06 08:32:34;;;;;;;;;;;;;;;19.27;100.00;93521.53;5014394;28;20038;-87
2023/10/06 08:35:00;;;;;;;11.73;6.40;;;;;;;19.02;100.00;93530.28;5010610;28;19964;-87
2023/10/06 08:37:26;;;;;;;10.55;6.47;;;;;;;19.05;100.00;93534.97;5019977;28;20405;-87
2023/10/06 08:39:51;;;;;;;10.27;6.28;;;;;;;18.99;100.00;93537.00;5015337;28;20533;-87
2023/10/06 08:42:19;;;;;;;11.90;6.82;;;;;;;18.86;100.00;93530.75;5008720;28;20044;-86
2023/10/06 08:44:45;;;;;;;12.15;7.28;;;;;;;18.79;100.00;93541.06;5021443;28;20026;-88
2023/10/06 08:47:13;;;;;;;12.93;7.15;;;;;;;18.79;100.00;93537.63;4996153;28;20052;-87
2023/10/06 08:49:48;;;;;;;12.07;7.72;;;;;;;18.80;100.00;93541.84;5010390;28;20030;-88
2023/10/06 08:52:17;;;;;;;11.88;5.97;;;;;;;18.65;100.00;93551.00;5019383;28;20038;-83
2023/10/06 08:54:45;;;;;;;8.48;4.60;;;;;;;18.18;100.00;93545.44;5011999;28;20444;-84
2023/10/06 08:57:15;;;;;;;8.80;6.00;;;;;;;17.90;100.00;93550.97;5011871;28;20045;-84
2023/10/06 08:59:42;;;;;;;14.55;6.78;;;;;;;17.71;100.00;93550.38;5009259;28;20045;-84
2023/10/06 09:02:09;;;;;;;14.75;7.38;;;;;;;17.94;100.00;93551.91;5011299;28;20084;-86
2023/10/06 09:04:37;;;;;;;9.93;6.38;;;;;;;18.20;100.00;93552.00;5009617;28;20038;-84
2023/10/06 09:07:21;;;;;;;10.88;6.88;;;;;;;18.59;100.00;93554.91;5013742;28;20087;-84
2023/10/06 09:09:47;;;;;;;15.13;6.05;;;;;;;18.76;100.00;93552.28;5021129;28;20042;-85
2023/10/06 09:12:26;;;;;;;12.25;6.70;;;;;;;18.96;100.00;93550.09;5013722;28;20041;-84
2023/10/06 09:14:55;;;;;;;11.27;6.88;;;;;;;18.93;100.00;93554.94;5013916;28;20038;-85
2023/10/06 09:17:32;;;;;;;11.32;6.40;;;;;;;18.69;100.00;93554.59;5014719;28;20040;-83
2023/10/06 09:19:58;;;;;;;10.60;6.32;;;;;;;19.13;100.00;93558.06;5014036;28;20057;-85
2023/10/06 09:22:29;;;;;;;10.88;6.25;;;;;;;19.42;100.00;93560.06;5014036;28;20052;-85
2023/10/06 09:25:04;;;;;;;9.40;5.95;;;;;;;19.38;100.00;93553.06;5015002;28;20493;-84
2023/10/06 09:27:32;;;;;;;10.15;5.60;;;;;;;18.79;100.00;93564.94;5013040;28;20061;-84
2023/10/06 09:29:59;;;;;;;10.85;5.93;;;;;;;18.58;100.00;93567.38;5014327;28;20112;-83
2023/10/06 09:32:25;;;;;;;9.20;6.20;;;;;;;18.49;100.00;93566.59;5014423;28;20042;-84
2023/10/06 09:34:53;;;;;;;10.98;6.07;;;;;;;18.91;100.00;93567.75;5014499;28;20033;-83
2023/10/06 09:37:20;;;;;;;10.95;7.25;;;;;;;19.48;100.00;93564.13;5015010;28;20563;-84
2023/10/06 09:40:10;;;;;;;13.02;8.40;;;;;;;19.87;100.00;93566.88;5014069;28;20049;-84
2023/10/06 09:42:36;;;;;;;9.88;6.70;;;;;;;20.10;100.00;93562.09;5014604;28;20038;-84
2023/10/06 09:45:07;;;;;;;11.15;6.53;;;;;;;20.25;100.00;93561.56;5015995;28;20414;-84
2023/10/06 09:47:41;;;;;;;9.80;5.90;;;;;;;20.14;100.00;93553.16;5015374;28;20100;-84
2023/10/06 09:50:08;;;;;;;8.80;5.80;;;;;;;20.08;100.00;93557.09;5015739;28;20041;-83
2023/10/06 09:52:35;;;;;;;9.60;6.22;;;;;;;20.31;100.00;93559.50;5027306;28;20129;-84
2023/10/06 09:55:04;;;;;;;14.07;7.40;;;;;;;20.28;100.00;93558.25;5011384;28;20156;-82
2023/10/06 09:57:32;;;;;;;12.75;8.27;;;;;;;20.25;100.00;93563.47;5008711;28;20083;-85
2023/10/06 10:00:00;;;;;;;11.13;7.43;;;;;;;20.44;100.00;93563.81;5012152;28;20096;-85
2023/10/06 10:02:29;;;;;;;14.93;7.82;;;;;;;20.16;100.00;93558.94;5012060;28;20074;-85
2023/10/06 10:04:59;;;;;;;10.20;8.18;;;;;;;20.11;100.00;93564.44;5012325;28;20042;-83
2023/10/06 10:07:28;;;;;;;12.23;7.63;;;;;;;20.15;100.00;93561.91;5012713;28;20036;-84
2023/10/06 10:09:57;;;;;;;9.98;7.03;;;;;;;20.33;100.00;93560.75;5010532;28;20042;-83
2023/10/06 10:12:40;;;;;;;15.30;8.77;;;;;;;20.06;100.00;93553.19;5014207;28;20025;-83
2023/10/06 10:15:28;;;;;;;10.35;7.53;;;;;;;20.12;100.00;93557.25;5011442;28;20191;-83
2023/10/06 10:18:25;;;;;;;11.25;7.10;;;;;;;20.15;100.00;93556.59;5009137;28;20573;-85
2023/10/06 10:20:52;;;;;;;15.32;10.30;;;;;;;20.79;100.00;93545.78;5012661;28;20045;-85
2023/10/06 10:23:18;;;;;;;9.10;6.03;;;;;;;20.72;100.00;93555.41;5008245;28;20112;-83
2023/10/06 10:25:44;;;;;;;11.40;7.82;;;;;;;20.72;100.00;93556.19;5017571;28;20077;-85
2023/10/06 10:28:26;;;;;;;11.45;8.02;;;;;;;20.54;100.00;93552.81;5018562;28;20026;-85
2023/10/06 10:30:57;;;;;;;11.90;8.15;;;;;;;21.00;100.00;93555.66;5001719;28;20045;-84
2023/10/06 10:33:30;;;;;;;11.90;8.35;;;;;;;20.91;100.00;93552.28;5023444;28;20030;-85
2023/10/06 10:36:20;;;;;;;12.75;8.82;;;;;;;20.38;100.00;93557.91;5014858;28;20060;-84
2023/10/06 10:38:57;;;;;;;18.40;10.45;;;;;;;20.51;100.00;93550.81;5008269;28;20029;-85
2023/10/06 10:41:27;;;;;;;15.13;9.68;;;;;;;20.64;100.00;93550.91;5016329;28;20093;-84
2023/10/06 10:43:53;;;;;;;16.27;9.80;;;;;;;20.35;100.00;93558.56;5015575;28;20049;-85
2023/10/06 10:46:31;;;;;;;14.55;9.70;;;;;;;20.21;100.00;93549.25;5011436;28;20066;-83
2023/10/06 10:48:59;;;;;;;13.82;9.27;;;;;;;20.23;100.00;93547.03;5032821;28;20052;-85
2023/10/06 10:51:25;;;;;;;12.52;9.80;;;;;;;20.21;100.00;93552.69;5016694;28;20026;-85
2023/10/06 10:53:52;;;;;;;13.82;9.10;;;;;;;19.97;100.00;93542.59;5009856;28;20057;-85
2023/10/06 10:56:34;;;;;;;10.55;8.32;;;;;;;20.22;100.00;93543.63;5029390;28;20084;-84
2023/10/06 10:59:00;;;;;;;16.05;10.93;;;;;;;20.59;100.00;93547.34;5006848;28;20034;-85
2023/10/06 11:01:38;;;;;;;15.70;10.57;;;;;;;21.11;100.00;93545.41;5014701;28;20112;-84
2023/10/06 11:04:13;;;;;;;13.23;9.48;;;;;;;21.67;100.00;93540.53;5015849;28;20034;-85
2023/10/06 11:06:39;;;;;;;16.50;10.88;;;;;;;21.65;100.00;93541.97;5012610;28;20040;-83
2023/10/06 11:09:25;;;;;;;12.48;8.65;;;;;;;22.03;100.00;93533.69;5027668;28;20034;-83
2023/10/06 11:12:01;;;;;;;17.33;11.50;;;;;;;21.83;100.00;93538.00;5023851;28;20068;-84
2023/10/06 11:14:28;;;;;;;13.80;10.35;;;;;;;21.83;100.00;93533.44;5014197;28;20034;-84
2023/10/06 11:17:03;;;;;;;17.70;12.02;;;;;;;21.93;100.00;93531.44;5013996;28;20053;-83
2023/10/06 11:19:33;;;;;;;15.68;11.57;;;;;;;22.08;100.00;93533.47;5015623;28;20038;-83
2023/10/06 11:22:13;;;;;;;15.15;9.95;;;;;;;21.32;100.00;93526.72;5016929;28;20045;-83
2023/10/06 11:24:40;;;;;;;15.20;11.75;;;;;;;21.47;100.00;93522.72;5010076;28;20502;-83
2023/10/06 11:27:16;;;;;;;15.32;11.75;;;;;;;21.03;100.00;93525.75;5004587;28;20026;-84
2023/10/06 11:29:45;;;;;;;15.82;11.07;;;;;;;21.08;100.00;93530.88;5014176;28;20061;-85
2023/10/06 11:32:12;;;;;;;16.00;12.50;;;;;;;20.89;100.00;93526.00;5018129;28;20033;-85
2023/10/06 11:34:38;;;;;;;16.95;12.05;;;;;;;20.77;100.00;93525.94;5013106;28;20047;-83
2023/10/06 11:37:05;;;;;;;16.38;11.63;;;;;;;20.87;100.00;93527.44;5013128;28;20042;-84
2023/10/06 11:39:31;;;;;;;16.13;10.27;;;;;;;20.79;100.00;93523.75;5014437;28;20107;-84
2023/10/06 11:42:22;;;;;;;13.90;11.30;;;;;;;20.26;100.00;93527.78;5008161;28;20030;-83
2023/10/06 11:44:48;;;;;;;18.23;11.55;;;;;;;20.25;100.00;93520.94;5021421;28;20065;-85
2023/10/06 11:47:13;;;;;;;15.65;11.38;;;;;;;20.33;100.00;93517.41;5015920;28;20040;-84